sensor_id;sensor_type;location;lat;lon;timestamp;pressure;altitude;pressure_sealevel;temperature;humidity
10921;BME280;5513;50.580;8.818;2022-08-01T00:01:16;98971.84;;;21.91;100.00
10921;BME280;5513;50.580;8.818;2022-08-01T00:03:44;98971.97;;;21.90;100.00
10921;BME280;5513;50.580;8.818;2022-08-01T00:06:12;98969.97;;;21.92;100.00
10921;BME280;5513;50.580;8.818;2022-08-01T00:08:41;98977.44;;;21.82;100.00
10921;BME280;5513;50.580;8.818;2022-08-01T00:11:09;98977.59;;;21.80;100.00
10921;BME280;5513;50.580;8.818;2022-08-01T00:13:37;98980.63;;;21.85;100.00
10921;BME280;5513;50.580;8.818;2022-08-01T00:16:07;98985.66;;;21.88;100.00
10921;BME280;5513;50.580;8.818;2022-08-01T00:18:36;98978.09;;;21.84;100.00
10921;BME280;5513;50.580;8.818;2022-08-01T00:21:04;98978.28;;;21.82;100.00
10921;BME280;5513;50.580;8.818;2022-08-01T00:23:33;98976.53;;;21.89;100.00
10921;BME280;5513;50.580;8.818;2022-08-01T00:26:01;98975.00;;;21.95;100.00
10921;BME280;5513;50.580;8.818;2022-08-01T00:28:29;98971.78;;;21.99;100.00
10921;BME280;5513;50.580;8.818;2022-08-01T00:30:58;98978.56;;;21.87;100.00
10921;BME280;5513;50.580;8.818;2022-08-01T00:33:27;98974.53;;;21.91;100.00
10921;BME280;5513;50.580;8.818;2022-08-01T00:35:55;98971.97;;;21.90;100.00
10921;BME280;5513;50.580;8.818;2022-08-01T00:38:24;98979.97;;;21.75;100.00
10921;BME280;5513;50.580;8.818;2022-08-01T00:40:53;98969.41;;;21.65;100.00
10921;BME280;5513;50.580;8.818;2022-08-01T00:43:21;98975.16;;;21.62;100.00
10921;BME280;5513;50.580;8.818;2022-08-01T00:45:50;98980.56;;;21.54;100.00
10921;BME280;5513;50.580;8.818;2022-08-01T00:48:18;98978.06;;;21.36;100.00
10921;BME280;5513;50.580;8.818;2022-08-01T00:50:48;98980.91;;;21.43;100.00
10921;BME280;5513;50.580;8.818;2022-08-01T00:53:17;98981.75;;;21.43;100.00
10921;BME280;5513;50.580;8.818;2022-08-01T00:55:47;98982.09;;;21.32;100.00
10921;BME280;5513;50.580;8.818;2022-08-01T00:58:16;98977.91;;;21.30;100.00
10921;BME280;5513;50.580;8.818;2022-08-01T01:00:44;98985.97;;;21.30;100.00
10921;BME280;5513;50.580;8.818;2022-08-01T01:03:21;98985.13;;;21.21;100.00
10921;BME280;5513;50.580;8.818;2022-08-01T01:06:25;98984.81;;;21.16;100.00
10921;BME280;5513;50.580;8.818;2022-08-01T01:09:07;98977.22;;;21.11;100.00
10921;BME280;5513;50.580;8.818;2022-08-01T01:11:44;98985.28;;;21.11;100.00
10921;BME280;5513;50.580;8.818;2022-08-01T01:14:23;98984.44;;;21.11;100.00
10921;BME280;5513;50.580;8.818;2022-08-01T01:16:55;98983.63;;;21.10;100.00
10921;BME280;5513;50.580;8.818;2022-08-01T01:19:30;98986.31;;;21.02;100.00
10921;BME280;5513;50.580;8.818;2022-08-01T01:22:25;98980.44;;;21.07;100.00
10921;BME280;5513;50.580;8.818;2022-08-01T01:28:09;98975.38;;;20.88;100.00
10921;BME280;5513;50.580;8.818;2022-08-01T01:33:28;98995.06;;;20.88;100.00
10921;BME280;5513;50.580;8.818;2022-08-01T01:36:02;98999.75;;;20.62;100.00
10921;BME280;5513;50.580;8.818;2022-08-01T01:38:40;99007.78;;;20.45;100.00
10921;BME280;5513;50.580;8.818;2022-08-01T01:41:11;99010.66;;;20.52;100.00
10921;BME280;5513;50.580;8.818;2022-08-01T01:43:41;99013.28;;;20.27;100.00
10921;BME280;5513;50.580;8.818;2022-08-01T01:46:11;99017.38;;;20.06;100.00
10921;BME280;5513;50.580;8.818;2022-08-01T01:48:43;99015.47;;;20.32;100.00
10921;BME280;5513;50.580;8.818;2022-08-01T01:51:13;99018.53;;;20.37;100.00
10921;BME280;5513;50.580;8.818;2022-08-01T01:53:43;99015.19;;;20.43;100.00
10921;BME280;5513;50.580;8.818;2022-08-01T01:56:14;99018.34;;;20.39;100.00
10921;BME280;5513;50.580;8.818;2022-08-01T01:58:45;99021.09;;;20.47;100.00
10921;BME280;5513;50.580;8.818;2022-08-01T02:01:17;99010.84;;;20.50;100.00
10921;BME280;5513;50.580;8.818;2022-08-01T02:04:08;99010.84;;;20.50;100.00
10921;BME280;5513;50.580;8.818;2022-08-01T02:06:37;99015.63;;;20.30;100.00
10921;BME280;5513;50.580;8.818;2022-08-01T02:09:07;99003.50;;;20.26;100.00
10921;BME280;5513;50.580;8.818;2022-08-01T02:11:38;99014.81;;;20.38;100.00
10921;BME280;5513;50.580;8.818;2022-08-01T02:14:28;99002.88;;;20.41;100.00
10921;BME280;5513;50.580;8.818;2022-08-01T02:16:58;99002.72;;;20.42;100.00
10921;BME280;5513;50.580;8.818;2022-08-01T02:19:32;99000.41;;;20.47;100.00
10921;BME280;5513;50.580;8.818;2022-08-01T02:22:07;99003.25;;;20.54;100.00
10921;BME280;5513;50.580;8.818;2022-08-01T02:24:37;99005.63;;;20.49;100.00
10921;BME280;5513;50.580;8.818;2022-08-01T02:27:09;98998.91;;;20.53;100.00
10921;BME280;5513;50.580;8.818;2022-08-01T02:29:43;99008.50;;;20.47;100.00
10921;BME280;5513;50.580;8.818;2022-08-01T02:32:30;99004.94;;;20.55;100.00
10921;BME280;5513;50.580;8.818;2022-08-01T02:35:01;99005.13;;;20.53;100.00
10921;BME280;5513;50.580;8.818;2022-08-01T02:37:33;99006.50;;;20.57;100.00
10921;BME280;5513;50.580;8.818;2022-08-01T02:40:12;99004.81;;;20.56;100.00
10921;BME280;5513;50.580;8.818;2022-08-01T02:42:43;99013.41;;;20.68;100.00
10921;BME280;5513;50.580;8.818;2022-08-01T02:45:13;99010.03;;;20.74;100.00
10921;BME280;5513;50.580;8.818;2022-08-01T02:47:42;99015.09;;;20.85;100.00
10921;BME280;5513;50.580;8.818;2022-08-01T02:50:14;98998.41;;;20.82;100.00
10921;BME280;5513;50.580;8.818;2022-08-01T02:52:46;99000.97;;;20.75;100.00
10921;BME280;5513;50.580;8.818;2022-08-01T02:55:17;99004.16;;;20.87;100.00
10921;BME280;5513;50.580;8.818;2022-08-01T02:57:47;99006.03;;;20.86;100.00
10921;BME280;5513;50.580;8.818;2022-08-01T03:00:26;99008.19;;;20.83;100.00
10921;BME280;5513;50.580;8.818;2022-08-01T03:02:56;99003.13;;;20.80;100.00
10921;BME280;5513;50.580;8.818;2022-08-01T03:05:27;99006.19;;;20.77;100.00
10921;BME280;5513;50.580;8.818;2022-08-01T03:07:57;99005.66;;;20.81;100.00
10921;BME280;5513;50.580;8.818;2022-08-01T03:10:31;99003.59;;;20.51;100.00
10921;BME280;5513;50.580;8.818;2022-08-01T03:13:01;99014.13;;;20.28;100.00
10921;BME280;5513;50.580;8.818;2022-08-01T03:15:34;99008.75;;;20.36;100.00
10921;BME280;5513;50.580;8.818;2022-08-01T03:18:06;99009.50;;;20.46;100.00
10921;BME280;5513;50.580;8.818;2022-08-01T03:20:36;99003.59;;;20.43;100.00
10921;BME280;5513;50.580;8.818;2022-08-01T03:23:06;99008.59;;;20.38;100.00
10921;BME280;5513;50.580;8.818;2022-08-01T03:25:37;99006.63;;;20.48;100.00
10921;BME280;5513;50.580;8.818;2022-08-01T03:28:07;99009.41;;;20.30;100.00
10921;BME280;5513;50.580;8.818;2022-08-01T03:30:39;99004.72;;;20.40;100.00
10921;BME280;5513;50.580;8.818;2022-08-01T03:33:08;99008.25;;;20.41;100.00
10921;BME280;5513;50.580;8.818;2022-08-01T03:35:46;99005.22;;;20.36;100.00
10921;BME280;5513;50.580;8.818;2022-08-01T03:38:18;99009.44;;;20.38;100.00
10921;BME280;5513;50.580;8.818;2022-08-01T03:40:52;99009.81;;;20.43;100.00
10921;BME280;5513;50.580;8.818;2022-08-01T03:43:26;99005.56;;;20.41;100.00
10921;BME280;5513;50.580;8.818;2022-08-01T03:46:02;99011.28;;;20.38;100.00
10921;BME280;5513;50.580;8.818;2022-08-01T03:48:36;99000.66;;;20.20;100.00
10921;BME280;5513;50.580;8.818;2022-08-01T03:51:10;99010.56;;;20.19;100.00
10921;BME280;5513;50.580;8.818;2022-08-01T03:53:41;99011.22;;;20.21;100.00
10921;BME280;5513;50.580;8.818;2022-08-01T03:56:13;99022.63;;;20.15;100.00
10921;BME280;5513;50.580;8.818;2022-08-01T03:58:46;99025.19;;;20.25;100.00
10921;BME280;5513;50.580;8.818;2022-08-01T04:01:16;99022.53;;;20.33;100.00
10921;BME280;5513;50.580;8.818;2022-08-01T04:03:46;99019.88;;;20.41;100.00
10921;BME280;5513;50.580;8.818;2022-08-01T04:06:16;99022.25;;;20.44;100.00
10921;BME280;5513;50.580;8.818;2022-08-01T04:08:44;99011.94;;;20.32;100.00
10921;BME280;5513;50.580;8.818;2022-08-01T04:11:23;99023.25;;;20.43;100.00
10921;BME280;5513;50.580;8.818;2022-08-01T04:13:52;99021.72;;;20.41;100.00
10921;BME280;5513;50.580;8.818;2022-08-01T04:16:21;99024.19;;;20.26;100.00
10921;BME280;5513;50.580;8.818;2022-08-01T04:18:49;99025.19;;;20.25;100.00
10921;BME280;5513;50.580;8.818;2022-08-01T04:21:22;99026.88;;;20.26;100.00
10921;BME280;5513;50.580;8.818;2022-08-01T04:23:56;99017.81;;;20.27;100.00
10921;BME280;5513;50.580;8.818;2022-08-01T04:26:27;99026.94;;;20.42;100.00
10921;BME280;5513;50.580;8.818;2022-08-01T04:28:58;99029.47;;;20.44;100.00
10921;BME280;5513;50.580;8.818;2022-08-01T04:31:30;99021.41;;;20.44;100.00
10921;BME280;5513;50.580;8.818;2022-08-01T04:34:00;99029.19;;;20.47;100.00
10921;BME280;5513;50.580;8.818;2022-08-01T04:36:33;99039.50;;;20.34;100.00
10921;BME280;5513;50.580;8.818;2022-08-01T04:39:04;99037.75;;;20.50;100.00
10921;BME280;5513;50.580;8.818;2022-08-01T04:41:33;99039.78;;;20.56;100.00
10921;BME280;5513;50.580;8.818;2022-08-01T04:44:02;99046.03;;;20.57;100.00
10921;BME280;5513;50.580;8.818;2022-08-01T04:46:32;99040.47;;;20.58;100.00
10921;BME280;5513;50.580;8.818;2022-08-01T04:49:01;99037.28;;;20.71;100.00
10921;BME280;5513;50.580;8.818;2022-08-01T04:51:31;99054.78;;;20.67;100.00
10921;BME280;5513;50.580;8.818;2022-08-01T04:54:00;99044.34;;;20.72;100.00
10921;BME280;5513;50.580;8.818;2022-08-01T04:56:28;99042.84;;;20.70;100.00
10921;BME280;5513;50.580;8.818;2022-08-01T04:58:59;99038.63;;;20.67;100.00
10921;BME280;5513;50.580;8.818;2022-08-01T05:01:49;99047.69;;;20.58;100.00
10921;BME280;5513;50.580;8.818;2022-08-01T05:04:19;99053.25;;;20.56;100.00
10921;BME280;5513;50.580;8.818;2022-08-01T05:06:49;99055.28;;;20.71;100.00
10921;BME280;5513;50.580;8.818;2022-08-01T05:09:17;99056.28;;;20.70;100.00
10921;BME280;5513;50.580;8.818;2022-08-01T05:11:46;99047.56;;;20.68;100.00
10921;BME280;5513;50.580;8.818;2022-08-01T05:14:14;99053.59;;;20.70;100.00
10921;BME280;5513;50.580;8.818;2022-08-01T05:16:42;99061.00;;;20.68;100.00
10921;BME280;5513;50.580;8.818;2022-08-01T05:19:11;99057.34;;;20.85;100.00
10921;BME280;5513;50.580;8.818;2022-08-01T05:21:39;99065.75;;;20.90;100.00
10921;BME280;5513;50.580;8.818;2022-08-01T05:24:10;99062.69;;;20.69;100.00
10921;BME280;5513;50.580;8.818;2022-08-01T05:26:39;99062.38;;;20.80;100.00
10921;BME280;5513;50.580;8.818;2022-08-01T05:29:08;99071.81;;;21.00;100.00
10921;BME280;5513;50.580;8.818;2022-08-01T05:31:37;99068.78;;;21.03;100.00
10921;BME280;5513;50.580;8.818;2022-08-01T05:34:07;99076.88;;;21.03;100.00
10921;BME280;5513;50.580;8.818;2022-08-01T05:36:40;99072.84;;;21.15;100.00
10921;BME280;5513;50.580;8.818;2022-08-01T05:39:10;99078.06;;;21.25;100.00
10921;BME280;5513;50.580;8.818;2022-08-01T05:41:39;99075.56;;;21.24;100.00
10921;BME280;5513;50.580;8.818;2022-08-01T05:44:08;99062.09;;;21.32;100.00
10921;BME280;5513;50.580;8.818;2022-08-01T05:46:37;99078.75;;;21.19;100.00
10921;BME280;5513;50.580;8.818;2022-08-01T05:49:05;99071.72;;;21.26;100.00
10921;BME280;5513;50.580;8.818;2022-08-01T05:51:34;99086.66;;;21.21;100.00
10921;BME280;5513;50.580;8.818;2022-08-01T05:54:02;99070.00;;;21.25;100.00
10921;BME280;5513;50.580;8.818;2022-08-01T05:56:32;99078.56;;;21.21;100.00
10921;BME280;5513;50.580;8.818;2022-08-01T05:59:00;99079.25;;;21.06;100.00
10921;BME280;5513;50.580;8.818;2022-08-01T06:01:29;99079.91;;;21.08;100.00
10921;BME280;5513;50.580;8.818;2022-08-01T06:03:57;99086.81;;;21.19;100.00
10921;BME280;5513;50.580;8.818;2022-08-01T06:06:26;99086.97;;;21.09;100.00
10921;BME280;5513;50.580;8.818;2022-08-01T06:08:56;99078.91;;;21.18;100.00
10921;BME280;5513;50.580;8.818;2022-08-01T06:11:24;99087.66;;;21.20;100.00
10921;BME280;5513;50.580;8.818;2022-08-01T06:13:54;99087.31;;;20.98;100.00
10921;BME280;5513;50.580;8.818;2022-08-01T06:16:23;99084.97;;;20.95;100.00
10921;BME280;5513;50.580;8.818;2022-08-01T06:18:51;99094.72;;;20.96;100.00
10921;BME280;5513;50.580;8.818;2022-08-01T06:21:22;99106.34;;;21.05;100.00
10921;BME280;5513;50.580;8.818;2022-08-01T06:23:50;99105.66;;;21.11;100.00
10921;BME280;5513;50.580;8.818;2022-08-01T06:26:19;99105.81;;;21.01;100.00
10921;BME280;5513;50.580;8.818;2022-08-01T06:28:49;99099.56;;;20.93;100.00
10921;BME280;5513;50.580;8.818;2022-08-01T06:31:19;99108.69;;;21.00;100.00
10921;BME280;5513;50.580;8.818;2022-08-01T06:33:49;99106.00;;;21.00;100.00
10921;BME280;5513;50.580;8.818;2022-08-01T06:36:17;99109.50;;;20.92;100.00
10921;BME280;5513;50.580;8.818;2022-08-01T06:38:46;99110.88;;;20.96;100.00
10921;BME280;5513;50.580;8.818;2022-08-01T06:41:14;99111.06;;;20.95;100.00
10921;BME280;5513;50.580;8.818;2022-08-01T06:43:42;99111.06;;;21.11;100.00
10921;BME280;5513;50.580;8.818;2022-08-01T06:46:10;99112.06;;;21.10;100.00
10921;BME280;5513;50.580;8.818;2022-08-01T06:48:40;99100.63;;;21.08;100.00
10921;BME280;5513;50.580;8.818;2022-08-01T06:51:09;99111.22;;;21.01;100.00
10921;BME280;5513;50.580;8.818;2022-08-01T06:53:40;99115.59;;;21.02;100.00
10921;BME280;5513;50.580;8.818;2022-08-01T06:56:10;99120.84;;;21.04;100.00
10921;BME280;5513;50.580;8.818;2022-08-01T06:58:38;99117.97;;;21.13;100.00
10921;BME280;5513;50.580;8.818;2022-08-01T07:01:06;99116.63;;;21.18;100.00
10921;BME280;5513;50.580;8.818;2022-08-01T07:03:36;99117.53;;;21.34;100.00
10921;BME280;5513;50.580;8.818;2022-08-01T07:06:22;99112.63;;;21.38;100.00
10921;BME280;5513;50.580;8.818;2022-08-01T07:08:51;99112.63;;;21.38;100.00
10921;BME280;5513;50.580;8.818;2022-08-01T07:11:20;99103.53;;;21.31;100.00
10921;BME280;5513;50.580;8.818;2022-08-01T07:13:48;99112.44;;;21.39;100.00
10921;BME280;5513;50.580;8.818;2022-08-01T07:16:16;99101.19;;;21.44;100.00
10921;BME280;5513;50.580;8.818;2022-08-01T07:18:45;99101.31;;;21.51;100.00
10921;BME280;5513;50.580;8.818;2022-08-01T07:21:13;99113.47;;;21.55;100.00
10921;BME280;5513;50.580;8.818;2022-08-01T07:24:03;99118.81;;;21.22;100.00
10921;BME280;5513;50.580;8.818;2022-08-01T07:26:40;99117.69;;;21.33;100.00
10921;BME280;5513;50.580;8.818;2022-08-01T07:29:21;99112.63;;;21.54;100.00
10921;BME280;5513;50.580;8.818;2022-08-01T07:31:49;99108.91;;;21.47;100.00
10921;BME280;5513;50.580;8.818;2022-08-01T07:34:19;99118.00;;;21.38;100.00
10921;BME280;5513;50.580;8.818;2022-08-01T07:36:47;99125.22;;;21.21;100.00
10921;BME280;5513;50.580;8.818;2022-08-01T07:39:17;99121.19;;;21.25;100.00
10921;BME280;5513;50.580;8.818;2022-08-01T07:41:46;99117.31;;;21.60;100.00
10921;BME280;5513;50.580;8.818;2022-08-01T07:44:35;99112.75;;;21.85;100.00
10921;BME280;5513;50.580;8.818;2022-08-01T07:47:05;99122.69;;;21.93;100.00
10921;BME280;5513;50.580;8.818;2022-08-01T07:49:34;99121.88;;;21.76;100.00
10921;BME280;5513;50.580;8.818;2022-08-01T07:52:06;99119.19;;;21.60;100.00
10921;BME280;5513;50.580;8.818;2022-08-01T07:54:36;99131.00;;;21.42;100.00
10921;BME280;5513;50.580;8.818;2022-08-01T07:57:05;99118.34;;;21.76;100.00
10921;BME280;5513;50.580;8.818;2022-08-01T07:59:34;99113.75;;;21.92;100.00
10921;BME280;5513;50.580;8.818;2022-08-01T08:02:02;99116.28;;;21.86;100.00
10921;BME280;5513;50.580;8.818;2022-08-01T08:04:31;99112.22;;;21.90;100.00
10921;BME280;5513;50.580;8.818;2022-08-01T08:06:59;99104.66;;;21.85;100.00
10921;BME280;5513;50.580;8.818;2022-08-01T08:09:28;99109.81;;;22.27;100.00
10921;BME280;5513;50.580;8.818;2022-08-01T08:12:05;99104.69;;;22.80;100.00
10921;BME280;5513;50.580;8.818;2022-08-01T08:14:34;99106.31;;;22.97;100.00
10921;BME280;5513;50.580;8.818;2022-08-01T08:17:03;99101.91;;;23.19;100.00
10921;BME280;5513;50.580;8.818;2022-08-01T08:19:31;99094.22;;;23.08;100.00
10921;BME280;5513;50.580;8.818;2022-08-01T08:22:04;99097.91;;;22.53;100.00
10921;BME280;5513;50.580;8.818;2022-08-01T08:24:35;99099.09;;;22.90;100.00
10921;BME280;5513;50.580;8.818;2022-08-01T08:27:14;99099.31;;;23.26;100.00
10921;BME280;5513;50.580;8.818;2022-08-01T08:29:44;99104.91;;;23.47;100.00
10921;BME280;5513;50.580;8.818;2022-08-01T08:32:13;99093.53;;;23.52;100.00
10921;BME280;5513;50.580;8.818;2022-08-01T08:34:42;99097.72;;;23.54;100.00
10921;BME280;5513;50.580;8.818;2022-08-01T08:37:10;99094.66;;;23.20;100.00
10921;BME280;5513;50.580;8.818;2022-08-01T08:39:39;99099.63;;;23.31;100.00
10921;BME280;5513;50.580;8.818;2022-08-01T08:42:09;99098.28;;;23.50;100.00
10921;BME280;5513;50.580;8.818;2022-08-01T08:44:40;99110.22;;;23.18;100.00
10921;BME280;5513;50.580;8.818;2022-08-01T08:47:11;99102.63;;;23.36;100.00
10921;BME280;5513;50.580;8.818;2022-08-01T08:49:45;99099.84;;;23.44;100.00
10921;BME280;5513;50.580;8.818;2022-08-01T08:52:15;99095.91;;;23.32;100.00
10921;BME280;5513;50.580;8.818;2022-08-01T08:54:46;99089.56;;;24.15;100.00
10921;BME280;5513;50.580;8.818;2022-08-01T08:57:15;99091.50;;;24.50;100.00
10921;BME280;5513;50.580;8.818;2022-08-01T08:59:45;99086.00;;;24.80;100.00
10921;BME280;5513;50.580;8.818;2022-08-01T09:02:13;99085.56;;;25.34;100.00
10921;BME280;5513;50.580;8.818;2022-08-01T09:04:41;99084.53;;;25.35;100.00
10921;BME280;5513;50.580;8.818;2022-08-01T09:07:11;99086.66;;;25.39;100.00
10921;BME280;5513;50.580;8.818;2022-08-01T09:09:40;99086.84;;;25.38;100.00
10921;BME280;5513;50.580;8.818;2022-08-01T09:12:09;99094.75;;;25.11;100.00
10921;BME280;5513;50.580;8.818;2022-08-01T09:14:46;99080.56;;;25.09;100.00
10921;BME280;5513;50.580;8.818;2022-08-01T09:17:16;99084.84;;;25.25;100.00
10921;BME280;5513;50.580;8.818;2022-08-01T09:19:45;99074.63;;;25.70;100.00
10921;BME280;5513;50.580;8.818;2022-08-01T09:22:16;99081.94;;;25.98;100.00
10921;BME280;5513;50.580;8.818;2022-08-01T09:24:58;99073.84;;;25.55;100.00
10921;BME280;5513;50.580;8.818;2022-08-01T09:27:26;99081.88;;;25.42;100.00
10921;BME280;5513;50.580;8.818;2022-08-01T09:30:09;99097.53;;;24.82;100.00
10921;BME280;5513;50.580;8.818;2022-08-01T09:32:52;99082.81;;;24.91;100.00
10921;BME280;5513;50.580;8.818;2022-08-01T09:35:26;99082.72;;;25.42;100.00
10921;BME280;5513;50.580;8.818;2022-08-01T09:38:16;99087.56;;;25.25;100.00
10921;BME280;5513;50.580;8.818;2022-08-01T09:40:50;99082.88;;;25.13;100.00
10921;BME280;5513;50.580;8.818;2022-08-01T09:43:20;99094.81;;;25.39;100.00
10921;BME280;5513;50.580;8.818;2022-08-01T09:45:51;99093.59;;;25.21;100.00
10921;BME280;5513;50.580;8.818;2022-08-01T09:48:21;99083.88;;;24.90;100.00
10921;BME280;5513;50.580;8.818;2022-08-01T09:50:55;99088.81;;;25.23;100.00
10921;BME280;5513;50.580;8.818;2022-08-01T09:53:43;99085.19;;;25.16;100.00
10921;BME280;5513;50.580;8.818;2022-08-01T09:56:18;99091.41;;;25.09;100.00
10921;BME280;5513;50.580;8.818;2022-08-01T09:58:52;99088.78;;;25.01;100.00
10921;BME280;5513;50.580;8.818;2022-08-01T10:01:29;99085.25;;;24.86;100.00
10921;BME280;5513;50.580;8.818;2022-08-01T10:04:05;99087.66;;;24.96;100.00
10921;BME280;5513;50.580;8.818;2022-08-01T10:06:36;99087.03;;;24.43;100.00
10921;BME280;5513;50.580;8.818;2022-08-01T10:09:04;99092.84;;;24.76;100.00
10921;BME280;5513;50.580;8.818;2022-08-01T10:11:33;99086.59;;;24.75;100.00
10921;BME280;5513;50.580;8.818;2022-08-01T10:14:06;99081.91;;;25.20;100.00
10921;BME280;5513;50.580;8.818;2022-08-01T10:16:39;99082.50;;;25.93;100.00
10921;BME280;5513;50.580;8.818;2022-08-01T10:19:07;99078.22;;;26.40;100.00
10921;BME280;5513;50.580;8.818;2022-08-01T10:21:41;99074.06;;;26.50;100.00
10921;BME280;5513;50.580;8.818;2022-08-01T10:24:26;99083.00;;;26.99;100.00
10921;BME280;5513;50.580;8.818;2022-08-01T10:26:57;99079.16;;;27.41;100.00
10921;BME280;5513;50.580;8.818;2022-08-01T10:29:36;99069.72;;;27.44;99.19
10921;BME280;5513;50.580;8.818;2022-08-01T10:32:27;99066.56;;;27.20;100.00
10921;BME280;5513;50.580;8.818;2022-08-01T10:34:55;99082.25;;;27.18;100.00
10921;BME280;5513;50.580;8.818;2022-08-01T10:37:24;99068.28;;;26.67;100.00
10921;BME280;5513;50.580;8.818;2022-08-01T10:39:53;99071.56;;;27.03;100.00
10921;BME280;5513;50.580;8.818;2022-08-01T10:42:40;99076.34;;;26.40;100.00
10921;BME280;5513;50.580;8.818;2022-08-01T10:45:10;99068.28;;;25.63;100.00
10921;BME280;5513;50.580;8.818;2022-08-01T10:47:45;99058.91;;;25.87;100.00
10921;BME280;5513;50.580;8.818;2022-08-01T10:50:23;99051.16;;;26.66;100.00
10921;BME280;5513;50.580;8.818;2022-08-01T10:53:10;99048.44;;;26.66;100.00
10921;BME280;5513;50.580;8.818;2022-08-01T10:55:50;99054.69;;;26.60;100.00
10921;BME280;5513;50.580;8.818;2022-08-01T10:58:25;99046.81;;;26.92;100.00
10921;BME280;5513;50.580;8.818;2022-08-01T11:01:16;99054.66;;;27.61;99.70
10921;BME280;5513;50.580;8.818;2022-08-01T11:04:07;99042.38;;;28.36;93.97
10921;BME280;5513;50.580;8.818;2022-08-01T11:06:54;99040.97;;;28.65;90.56
10921;BME280;5513;50.580;8.818;2022-08-01T11:09:39;99042.16;;;29.14;86.24
10921;BME280;5513;50.580;8.818;2022-08-01T11:12:09;99043.78;;;28.52;84.43
10921;BME280;5513;50.580;8.818;2022-08-01T11:15:18;99038.72;;;27.91;90.66
10921;BME280;5513;50.580;8.818;2022-08-01T11:18:00;99037.88;;;28.62;86.15
10921;BME280;5513;50.580;8.818;2022-08-01T11:20:33;99045.00;;;27.85;86.17
10921;BME280;5513;50.580;8.818;2022-08-01T11:23:17;99032.16;;;28.18;84.12
10921;BME280;5513;50.580;8.818;2022-08-01T11:26:07;99036.59;;;29.02;80.27
10921;BME280;5513;50.580;8.818;2022-08-01T11:28:37;99024.69;;;28.97;78.32
10921;BME280;5513;50.580;8.818;2022-08-01T11:31:30;99033.47;;;27.96;86.36
10921;BME280;5513;50.580;8.818;2022-08-01T11:34:04;99029.09;;;28.98;77.89
10921;BME280;5513;50.580;8.818;2022-08-01T11:36:34;99032.25;;;28.50;79.41
10921;BME280;5513;50.580;8.818;2022-08-01T11:39:22;99034.75;;;27.47;82.11
10921;BME280;5513;50.580;8.818;2022-08-01T11:41:51;99021.94;;;28.01;81.18
10921;BME280;5513;50.580;8.818;2022-08-01T11:44:23;99040.19;;;27.87;86.82
10921;BME280;5513;50.580;8.818;2022-08-01T11:47:01;99038.31;;;27.54;89.41
10921;BME280;5513;50.580;8.818;2022-08-01T11:49:56;99030.38;;;27.46;92.39
10921;BME280;5513;50.580;8.818;2022-08-01T11:52:29;99032.88;;;27.81;90.87
10921;BME280;5513;50.580;8.818;2022-08-01T11:55:05;99032.63;;;27.89;89.44
10921;BME280;5513;50.580;8.818;2022-08-01T11:57:36;99033.69;;;27.88;87.18
10921;BME280;5513;50.580;8.818;2022-08-01T12:00:11;99031.84;;;27.82;87.84
10921;BME280;5513;50.580;8.818;2022-08-01T12:02:44;99021.59;;;27.71;85.62
10921;BME280;5513;50.580;8.818;2022-08-01T12:05:14;99019.69;;;27.18;86.59
10921;BME280;5513;50.580;8.818;2022-08-01T12:07:50;99021.22;;;28.32;80.74
10921;BME280;5513;50.580;8.818;2022-08-01T12:10:19;99021.38;;;28.43;78.26
10921;BME280;5513;50.580;8.818;2022-08-01T12:12:49;99019.13;;;28.78;71.18
10921;BME280;5513;50.580;8.818;2022-08-01T12:15:19;99020.34;;;28.83;71.83
10921;BME280;5513;50.580;8.818;2022-08-01T12:17:55;99025.56;;;27.81;73.45
10921;BME280;5513;50.580;8.818;2022-08-01T12:20:28;99024.47;;;28.54;74.13
10921;BME280;5513;50.580;8.818;2022-08-01T12:23:00;99030.88;;;29.11;70.40
10921;BME280;5513;50.580;8.818;2022-08-01T12:25:29;99026.44;;;29.41;69.91
10921;BME280;5513;50.580;8.818;2022-08-01T12:28:00;99029.94;;;27.62;78.52
10921;BME280;5513;50.580;8.818;2022-08-01T12:30:30;99027.03;;;27.51;81.01
10921;BME280;5513;50.580;8.818;2022-08-01T12:33:03;99018.00;;;27.83;77.66
10921;BME280;5513;50.580;8.818;2022-08-01T12:35:34;99022.22;;;28.44;73.61
10921;BME280;5513;50.580;8.818;2022-08-01T12:38:08;99026.72;;;28.63;70.94
10921;BME280;5513;50.580;8.818;2022-08-01T12:40:43;99022.41;;;28.87;69.64
10921;BME280;5513;50.580;8.818;2022-08-01T12:43:16;99024.63;;;28.65;71.27
10921;BME280;5513;50.580;8.818;2022-08-01T12:45:55;99029.47;;;28.57;71.69
10921;BME280;5513;50.580;8.818;2022-08-01T12:48:25;99028.47;;;28.58;72.51
10921;BME280;5513;50.580;8.818;2022-08-01T12:50:56;99021.00;;;28.78;72.49
10921;BME280;5513;50.580;8.818;2022-08-01T12:53:33;99021.75;;;28.98;71.49
10921;BME280;5513;50.580;8.818;2022-08-01T12:56:07;99019.78;;;28.29;74.40
10921;BME280;5513;50.580;8.818;2022-08-01T12:58:38;99022.56;;;28.09;76.54
10921;BME280;5513;50.580;8.818;2022-08-01T13:01:09;99020.66;;;28.10;77.65
10921;BME280;5513;50.580;8.818;2022-08-01T13:03:38;99014.50;;;28.28;77.27
10921;BME280;5513;50.580;8.818;2022-08-01T13:06:11;99012.50;;;27.97;76.90
10921;BME280;5513;50.580;8.818;2022-08-01T13:08:44;99012.56;;;27.83;75.50
10921;BME280;5513;50.580;8.818;2022-08-01T13:11:14;99021.56;;;27.37;74.82
10921;BME280;5513;50.580;8.818;2022-08-01T13:13:45;99007.34;;;27.62;74.63
10921;BME280;5513;50.580;8.818;2022-08-01T13:16:16;99006.88;;;27.91;76.65
10921;BME280;5513;50.580;8.818;2022-08-01T13:18:59;99014.13;;;28.31;74.92
10921;BME280;5513;50.580;8.818;2022-08-01T13:21:30;99017.66;;;28.31;74.33
10921;BME280;5513;50.580;8.818;2022-08-01T13:24:25;99019.09;;;28.27;70.82
10921;BME280;5513;50.580;8.818;2022-08-01T13:26:55;99006.75;;;28.76;69.15
10921;BME280;5513;50.580;8.818;2022-08-01T13:29:30;99014.66;;;28.84;68.42
10921;BME280;5513;50.580;8.818;2022-08-01T13:31:59;99013.34;;;29.00;67.42
10921;BME280;5513;50.580;8.818;2022-08-01T13:34:31;99012.97;;;27.41;73.08
10921;BME280;5513;50.580;8.818;2022-08-01T13:37:00;99007.97;;;28.42;71.71